< < Back
Terminal Aerodrome Forecast


Current Version              Previous Versions:   1  2  3  4  5  6  7  8  9  

Terminal Aerodrome Forecast

685
FTUS42 KTAE 081122
TAFABY
TAF
KABY 081122Z 0812/0912 25008KT P6SM SKC
     FM081600 26015G25KT P6SM BKN050
     FM090000 28010G16KT P6SM BKN040=

Latest METAR

214
SAUS70 KWBC 090700 RRG
MTRABY
METAR KABY 090653Z AUTO 27006KT 10SM CLR 06/M06 A2994 RMK AO2 SLP139
T00561056


USA.gov is the U.S. government's official web portal to all federal, state and local government web resources and services.